sensor_id;sensor_type;location;lat;lon;timestamp;temperature;humidity
57552;DHT22;43379;48.160;14.036;2023-08-21T00:01:01;24.30;99.90
57552;DHT22;43379;48.160;14.036;2023-08-21T00:03:27;24.20;99.90
57552;DHT22;43379;48.160;14.036;2023-08-21T00:05:53;24.20;99.90
57552;DHT22;43379;48.160;14.036;2023-08-21T00:08:18;24.20;99.90
57552;DHT22;43379;48.160;14.036;2023-08-21T00:10:44;24.20;99.90
57552;DHT22;43379;48.160;14.036;2023-08-21T00:13:09;24.20;99.90
57552;DHT22;43379;48.160;14.036;2023-08-21T00:15:37;24.20;99.90
57552;DHT22;43379;48.160;14.036;2023-08-21T00:18:03;24.10;99.90
57552;DHT22;43379;48.160;14.036;2023-08-21T00:20:29;24.10;99.90
57552;DHT22;43379;48.160;14.036;2023-08-21T00:22:55;24.10;99.90
57552;DHT22;43379;48.160;14.036;2023-08-21T00:25:21;24.10;99.90
57552;DHT22;43379;48.160;14.036;2023-08-21T00:27:47;24.10;99.90
57552;DHT22;43379;48.160;14.036;2023-08-21T00:30:13;24.00;99.90
57552;DHT22;43379;48.160;14.036;2023-08-21T00:32:40;24.00;99.90
57552;DHT22;43379;48.160;14.036;2023-08-21T00:35:06;24.00;99.90
57552;DHT22;43379;48.160;14.036;2023-08-21T00:37:32;23.90;99.90
57552;DHT22;43379;48.160;14.036;2023-08-21T00:39:57;23.90;99.90
57552;DHT22;43379;48.160;14.036;2023-08-21T00:42:23;23.80;99.90
57552;DHT22;43379;48.160;14.036;2023-08-21T00:44:49;23.80;99.90
57552;DHT22;43379;48.160;14.036;2023-08-21T00:47:14;23.70;99.90
57552;DHT22;43379;48.160;14.036;2023-08-21T00:49:40;23.80;99.90
57552;DHT22;43379;48.160;14.036;2023-08-21T00:52:12;23.80;99.90
57552;DHT22;43379;48.160;14.036;2023-08-21T00:54:38;23.90;99.90
57552;DHT22;43379;48.160;14.036;2023-08-21T00:57:04;23.80;99.90
57552;DHT22;43379;48.160;14.036;2023-08-21T00:59:30;23.80;99.90
57552;DHT22;43379;48.160;14.036;2023-08-21T01:01:56;23.70;99.90
57552;DHT22;43379;48.160;14.036;2023-08-21T01:04:21;23.70;99.90
57552;DHT22;43379;48.160;14.036;2023-08-21T01:06:51;23.70;99.90
57552;DHT22;43379;48.160;14.036;2023-08-21T01:17:18;23.50;99.90
57552;DHT22;43379;48.160;14.036;2023-08-21T01:19:47;23.50;99.90
57552;DHT22;43379;48.160;14.036;2023-08-21T01:22:13;23.50;99.90
57552;DHT22;43379;48.160;14.036;2023-08-21T01:24:39;23.40;99.90
57552;DHT22;43379;48.160;14.036;2023-08-21T01:27:05;23.40;99.90
57552;DHT22;43379;48.160;14.036;2023-08-21T01:29:31;23.40;99.90
57552;DHT22;43379;48.160;14.036;2023-08-21T01:32:07;23.30;99.90
57552;DHT22;43379;48.160;14.036;2023-08-21T01:34:37;23.30;99.90
57552;DHT22;43379;48.160;14.036;2023-08-21T01:37:03;23.30;99.90
57552;DHT22;43379;48.160;14.036;2023-08-21T01:39:29;23.30;99.90
57552;DHT22;43379;48.160;14.036;2023-08-21T01:41:57;23.30;99.90
57552;DHT22;43379;48.160;14.036;2023-08-21T01:44:23;23.30;99.90
57552;DHT22;43379;48.160;14.036;2023-08-21T01:46:48;23.30;99.90
57552;DHT22;43379;48.160;14.036;2023-08-21T01:49:14;23.30;99.90
57552;DHT22;43379;48.160;14.036;2023-08-21T01:51:40;23.30;99.90
57552;DHT22;43379;48.160;14.036;2023-08-21T01:54:05;23.30;99.90
57552;DHT22;43379;48.160;14.036;2023-08-21T01:56:31;23.30;99.90
57552;DHT22;43379;48.160;14.036;2023-08-21T01:58:56;23.30;99.90
57552;DHT22;43379;48.160;14.036;2023-08-21T02:01:22;23.20;99.90
57552;DHT22;43379;48.160;14.036;2023-08-21T02:03:48;23.20;99.90
57552;DHT22;43379;48.160;14.036;2023-08-21T02:06:14;23.20;99.90
57552;DHT22;43379;48.160;14.036;2023-08-21T02:08:40;23.10;99.90
57552;DHT22;43379;48.160;14.036;2023-08-21T02:11:05;23.10;99.90
57552;DHT22;43379;48.160;14.036;2023-08-21T02:13:31;23.10;99.90
57552;DHT22;43379;48.160;14.036;2023-08-21T02:15:58;23.10;99.90
57552;DHT22;43379;48.160;14.036;2023-08-21T02:18:24;23.10;99.90
57552;DHT22;43379;48.160;14.036;2023-08-21T02:20:50;23.10;99.90
57552;DHT22;43379;48.160;14.036;2023-08-21T02:23:16;23.10;99.90
57552;DHT22;43379;48.160;14.036;2023-08-21T02:25:42;23.00;99.90
57552;DHT22;43379;48.160;14.036;2023-08-21T02:28:08;23.00;99.90
57552;DHT22;43379;48.160;14.036;2023-08-21T02:30:33;23.00;99.90
57552;DHT22;43379;48.160;14.036;2023-08-21T02:32:59;23.00;99.90
57552;DHT22;43379;48.160;14.036;2023-08-21T02:35:25;23.00;99.90
57552;DHT22;43379;48.160;14.036;2023-08-21T02:37:50;22.90;99.90
57552;DHT22;43379;48.160;14.036;2023-08-21T02:40:16;22.90;99.90
57552;DHT22;43379;48.160;14.036;2023-08-21T02:42:42;22.90;99.90
57552;DHT22;43379;48.160;14.036;2023-08-21T02:45:08;22.90;99.90
57552;DHT22;43379;48.160;14.036;2023-08-21T02:47:37;22.80;99.90
57552;DHT22;43379;48.160;14.036;2023-08-21T02:50:05;22.80;99.90
57552;DHT22;43379;48.160;14.036;2023-08-21T02:52:31;22.80;99.90
57552;DHT22;43379;48.160;14.036;2023-08-21T02:54:57;22.80;99.90
57552;DHT22;43379;48.160;14.036;2023-08-21T02:57:24;22.80;99.90
57552;DHT22;43379;48.160;14.036;2023-08-21T02:59:50;22.70;99.90
57552;DHT22;43379;48.160;14.036;2023-08-21T03:02:16;22.70;99.90
57552;DHT22;43379;48.160;14.036;2023-08-21T03:04:42;22.60;99.90
57552;DHT22;43379;48.160;14.036;2023-08-21T03:07:08;22.60;99.90
57552;DHT22;43379;48.160;14.036;2023-08-21T03:09:33;22.50;99.90
57552;DHT22;43379;48.160;14.036;2023-08-21T03:11:59;22.50;99.90
57552;DHT22;43379;48.160;14.036;2023-08-21T03:14:26;22.50;99.90
57552;DHT22;43379;48.160;14.036;2023-08-21T03:16:52;22.40;99.90
57552;DHT22;43379;48.160;14.036;2023-08-21T03:19:17;22.40;99.90
57552;DHT22;43379;48.160;14.036;2023-08-21T03:21:43;22.50;99.90
57552;DHT22;43379;48.160;14.036;2023-08-21T03:24:09;22.50;99.90
57552;DHT22;43379;48.160;14.036;2023-08-21T03:26:34;22.50;99.90
57552;DHT22;43379;48.160;14.036;2023-08-21T03:29:00;22.50;99.90
57552;DHT22;43379;48.160;14.036;2023-08-21T03:31:26;22.50;99.90
57552;DHT22;43379;48.160;14.036;2023-08-21T03:33:51;22.40;99.90
57552;DHT22;43379;48.160;14.036;2023-08-21T03:36:17;22.30;99.90
57552;DHT22;43379;48.160;14.036;2023-08-21T03:38:43;22.20;99.90
57552;DHT22;43379;48.160;14.036;2023-08-21T03:41:08;22.10;99.90
57552;DHT22;43379;48.160;14.036;2023-08-21T03:43:34;22.20;99.90
57552;DHT22;43379;48.160;14.036;2023-08-21T03:46:00;22.20;99.90
57552;DHT22;43379;48.160;14.036;2023-08-21T03:48:25;22.10;99.90
57552;DHT22;43379;48.160;14.036;2023-08-21T03:50:51;22.20;99.90
57552;DHT22;43379;48.160;14.036;2023-08-21T03:53:17;22.20;99.90
57552;DHT22;43379;48.160;14.036;2023-08-21T03:55:43;22.20;99.90
57552;DHT22;43379;48.160;14.036;2023-08-21T03:58:08;22.10;99.90
57552;DHT22;43379;48.160;14.036;2023-08-21T04:00:34;22.20;99.90
57552;DHT22;43379;48.160;14.036;2023-08-21T04:03:00;22.10;99.90
57552;DHT22;43379;48.160;14.036;2023-08-21T04:05:25;22.10;99.90
57552;DHT22;43379;48.160;14.036;2023-08-21T04:07:51;22.10;99.90
57552;DHT22;43379;48.160;14.036;2023-08-21T04:10:17;22.00;99.90
57552;DHT22;43379;48.160;14.036;2023-08-21T04:12:42;22.00;99.90
57552;DHT22;43379;48.160;14.036;2023-08-21T04:15:08;21.90;99.90
57552;DHT22;43379;48.160;14.036;2023-08-21T04:17:34;22.00;99.90
57552;DHT22;43379;48.160;14.036;2023-08-21T04:20:00;21.90;99.90
57552;DHT22;43379;48.160;14.036;2023-08-21T04:22:25;21.90;99.90
57552;DHT22;43379;48.160;14.036;2023-08-21T04:24:51;21.90;99.90
57552;DHT22;43379;48.160;14.036;2023-08-21T04:27:17;21.90;99.90
57552;DHT22;43379;48.160;14.036;2023-08-21T04:29:42;21.90;99.90
57552;DHT22;43379;48.160;14.036;2023-08-21T04:32:08;21.90;99.90
57552;DHT22;43379;48.160;14.036;2023-08-21T04:34:34;22.00;99.90
57552;DHT22;43379;48.160;14.036;2023-08-21T04:37:00;22.00;99.90
57552;DHT22;43379;48.160;14.036;2023-08-21T04:39:25;22.10;99.90
57552;DHT22;43379;48.160;14.036;2023-08-21T04:41:51;22.10;99.90
57552;DHT22;43379;48.160;14.036;2023-08-21T04:44:17;22.10;99.90
57552;DHT22;43379;48.160;14.036;2023-08-21T04:46:43;22.10;99.90
57552;DHT22;43379;48.160;14.036;2023-08-21T04:49:08;22.00;99.90
57552;DHT22;43379;48.160;14.036;2023-08-21T04:51:34;21.90;99.90
57552;DHT22;43379;48.160;14.036;2023-08-21T04:54:00;22.00;99.90
57552;DHT22;43379;48.160;14.036;2023-08-21T04:56:26;22.10;99.90
57552;DHT22;43379;48.160;14.036;2023-08-21T04:58:52;22.10;99.90
57552;DHT22;43379;48.160;14.036;2023-08-21T05:01:18;22.20;99.90
57552;DHT22;43379;48.160;14.036;2023-08-21T05:03:43;22.30;99.90
57552;DHT22;43379;48.160;14.036;2023-08-21T05:06:09;22.50;99.90
57552;DHT22;43379;48.160;14.036;2023-08-21T05:08:35;22.50;99.90
57552;DHT22;43379;48.160;14.036;2023-08-21T05:11:01;22.70;99.90
57552;DHT22;43379;48.160;14.036;2023-08-21T05:13:27;22.70;99.90
57552;DHT22;43379;48.160;14.036;2023-08-21T05:15:54;22.90;99.90
57552;DHT22;43379;48.160;14.036;2023-08-21T05:18:20;23.10;99.90
57552;DHT22;43379;48.160;14.036;2023-08-21T05:20:47;23.20;99.90
57552;DHT22;43379;48.160;14.036;2023-08-21T05:23:13;23.40;99.90
57552;DHT22;43379;48.160;14.036;2023-08-21T05:25:39;23.50;99.90
57552;DHT22;43379;48.160;14.036;2023-08-21T05:28:05;23.70;99.90
57552;DHT22;43379;48.160;14.036;2023-08-21T05:30:31;23.90;99.90
57552;DHT22;43379;48.160;14.036;2023-08-21T05:32:57;24.30;99.90
57552;DHT22;43379;48.160;14.036;2023-08-21T05:35:22;24.90;99.90
57552;DHT22;43379;48.160;14.036;2023-08-21T05:37:48;25.60;99.90
57552;DHT22;43379;48.160;14.036;2023-08-21T05:40:14;26.50;99.90
57552;DHT22;43379;48.160;14.036;2023-08-21T05:42:39;27.20;99.90
57552;DHT22;43379;48.160;14.036;2023-08-21T05:45:06;27.90;99.90
57552;DHT22;43379;48.160;14.036;2023-08-21T05:47:31;28.80;99.90
57552;DHT22;43379;48.160;14.036;2023-08-21T05:49:57;29.50;99.90
57552;DHT22;43379;48.160;14.036;2023-08-21T05:52:23;30.30;99.90
57552;DHT22;43379;48.160;14.036;2023-08-21T05:54:49;31.00;99.30
57552;DHT22;43379;48.160;14.036;2023-08-21T05:57:15;31.40;98.20
57552;DHT22;43379;48.160;14.036;2023-08-21T05:59:47;32.10;97.00
57552;DHT22;43379;48.160;14.036;2023-08-21T06:02:13;32.40;95.20
57552;DHT22;43379;48.160;14.036;2023-08-21T06:04:43;32.50;95.40
57552;DHT22;43379;48.160;14.036;2023-08-21T06:07:09;33.20;94.10
57552;DHT22;43379;48.160;14.036;2023-08-21T06:09:35;33.30;93.90
57552;DHT22;43379;48.160;14.036;2023-08-21T06:12:04;33.70;92.90
57552;DHT22;43379;48.160;14.036;2023-08-21T06:14:30;34.00;92.30
57552;DHT22;43379;48.160;14.036;2023-08-21T06:17:00;34.40;91.40
57552;DHT22;43379;48.160;14.036;2023-08-21T06:19:29;34.70;90.20
57552;DHT22;43379;48.160;14.036;2023-08-21T06:21:55;34.80;90.10
57552;DHT22;43379;48.160;14.036;2023-08-21T06:24:21;34.90;90.10
57552;DHT22;43379;48.160;14.036;2023-08-21T06:26:47;35.30;88.70
57552;DHT22;43379;48.160;14.036;2023-08-21T06:29:13;35.50;89.40
57552;DHT22;43379;48.160;14.036;2023-08-21T06:31:38;35.60;87.40
57552;DHT22;43379;48.160;14.036;2023-08-21T06:34:04;35.70;86.70
57552;DHT22;43379;48.160;14.036;2023-08-21T06:36:30;36.00;86.40
57552;DHT22;43379;48.160;14.036;2023-08-21T06:38:56;36.10;85.10
57552;DHT22;43379;48.160;14.036;2023-08-21T06:41:22;36.20;85.40
57552;DHT22;43379;48.160;14.036;2023-08-21T06:43:47;36.30;84.30
57552;DHT22;43379;48.160;14.036;2023-08-21T06:46:13;36.30;84.90
57552;DHT22;43379;48.160;14.036;2023-08-21T06:48:40;36.90;84.20
57552;DHT22;43379;48.160;14.036;2023-08-21T06:51:06;37.10;83.60
57552;DHT22;43379;48.160;14.036;2023-08-21T06:53:32;37.40;81.90
57552;DHT22;43379;48.160;14.036;2023-08-21T06:55:58;37.20;83.00
57552;DHT22;43379;48.160;14.036;2023-08-21T06:58:23;37.00;82.10
57552;DHT22;43379;48.160;14.036;2023-08-21T07:00:49;36.70;82.60
57552;DHT22;43379;48.160;14.036;2023-08-21T07:03:15;36.60;83.10
57552;DHT22;43379;48.160;14.036;2023-08-21T07:05:40;36.40;83.90
57552;DHT22;43379;48.160;14.036;2023-08-21T07:08:06;36.30;83.90
57552;DHT22;43379;48.160;14.036;2023-08-21T07:10:37;36.30;83.90
57552;DHT22;43379;48.160;14.036;2023-08-21T07:13:03;36.30;84.30
57552;DHT22;43379;48.160;14.036;2023-08-21T07:15:29;36.20;83.20
57552;DHT22;43379;48.160;14.036;2023-08-21T07:17:55;36.00;84.60
57552;DHT22;43379;48.160;14.036;2023-08-21T07:20:21;35.60;85.10
57552;DHT22;43379;48.160;14.036;2023-08-21T07:22:47;35.30;85.60
57552;DHT22;43379;48.160;14.036;2023-08-21T07:25:13;35.10;86.40
57552;DHT22;43379;48.160;14.036;2023-08-21T07:27:39;35.10;86.30
57552;DHT22;43379;48.160;14.036;2023-08-21T07:30:06;35.10;87.20
57552;DHT22;43379;48.160;14.036;2023-08-21T07:32:32;35.20;86.70
57552;DHT22;43379;48.160;14.036;2023-08-21T07:34:57;35.30;86.30
57552;DHT22;43379;48.160;14.036;2023-08-21T07:37:23;35.00;86.90
57552;DHT22;43379;48.160;14.036;2023-08-21T07:39:49;35.30;86.60
57552;DHT22;43379;48.160;14.036;2023-08-21T07:42:14;35.20;87.70
57552;DHT22;43379;48.160;14.036;2023-08-21T07:44:40;35.40;85.70
57552;DHT22;43379;48.160;14.036;2023-08-21T07:47:06;35.60;86.30
57552;DHT22;43379;48.160;14.036;2023-08-21T07:49:32;35.70;87.20
57552;DHT22;43379;48.160;14.036;2023-08-21T07:51:58;35.70;86.90
57552;DHT22;43379;48.160;14.036;2023-08-21T07:54:24;35.70;85.70
57552;DHT22;43379;48.160;14.036;2023-08-21T07:56:50;35.70;86.30
57552;DHT22;43379;48.160;14.036;2023-08-21T07:59:16;35.60;84.30
57552;DHT22;43379;48.160;14.036;2023-08-21T08:01:42;35.60;84.60
57552;DHT22;43379;48.160;14.036;2023-08-21T08:04:08;35.40;84.70
57552;DHT22;43379;48.160;14.036;2023-08-21T08:06:34;35.40;84.40
57552;DHT22;43379;48.160;14.036;2023-08-21T08:09:00;35.30;85.90
57552;DHT22;43379;48.160;14.036;2023-08-21T08:11:25;35.30;87.20
57552;DHT22;43379;48.160;14.036;2023-08-21T08:13:51;35.30;87.60
57552;DHT22;43379;48.160;14.036;2023-08-21T08:16:17;35.30;87.60
57552;DHT22;43379;48.160;14.036;2023-08-21T08:18:43;35.30;86.70
57552;DHT22;43379;48.160;14.036;2023-08-21T08:21:08;35.20;87.00
57552;DHT22;43379;48.160;14.036;2023-08-21T08:23:36;35.30;88.30
57552;DHT22;43379;48.160;14.036;2023-08-21T08:26:01;35.30;87.40
57552;DHT22;43379;48.160;14.036;2023-08-21T08:28:28;35.40;87.70
57552;DHT22;43379;48.160;14.036;2023-08-21T08:30:53;35.40;87.30
57552;DHT22;43379;48.160;14.036;2023-08-21T08:33:20;35.60;88.80
57552;DHT22;43379;48.160;14.036;2023-08-21T08:35:45;35.70;87.20
57552;DHT22;43379;48.160;14.036;2023-08-21T08:38:11;35.70;86.00
57552;DHT22;43379;48.160;14.036;2023-08-21T08:40:44;35.70;86.50
57552;DHT22;43379;48.160;14.036;2023-08-21T08:43:13;35.90;86.50
57552;DHT22;43379;48.160;14.036;2023-08-21T08:45:40;35.90;84.90
57552;DHT22;43379;48.160;14.036;2023-08-21T08:48:07;35.90;85.30
57552;DHT22;43379;48.160;14.036;2023-08-21T08:50:34;36.00;85.50
57552;DHT22;43379;48.160;14.036;2023-08-21T08:53:00;36.10;85.30
57552;DHT22;43379;48.160;14.036;2023-08-21T08:55:26;36.20;85.90
57552;DHT22;43379;48.160;14.036;2023-08-21T08:57:53;36.30;85.70
57552;DHT22;43379;48.160;14.036;2023-08-21T09:00:19;36.30;84.70
57552;DHT22;43379;48.160;14.036;2023-08-21T09:02:46;36.40;84.60
57552;DHT22;43379;48.160;14.036;2023-08-21T09:05:12;36.60;83.70
57552;DHT22;43379;48.160;14.036;2023-08-21T09:07:38;36.70;84.20
57552;DHT22;43379;48.160;14.036;2023-08-21T09:10:12;36.70;83.50
57552;DHT22;43379;48.160;14.036;2023-08-21T09:12:39;36.80;83.70
57552;DHT22;43379;48.160;14.036;2023-08-21T09:15:08;36.80;82.10
57552;DHT22;43379;48.160;14.036;2023-08-21T09:17:34;36.90;81.80
57552;DHT22;43379;48.160;14.036;2023-08-21T09:20:07;37.00;82.00
57552;DHT22;43379;48.160;14.036;2023-08-21T09:22:35;36.80;80.90
57552;DHT22;43379;48.160;14.036;2023-08-21T09:25:05;36.90;82.90
57552;DHT22;43379;48.160;14.036;2023-08-21T09:27:37;36.80;81.50
57552;DHT22;43379;48.160;14.036;2023-08-21T09:30:04;37.00;82.80
57552;DHT22;43379;48.160;14.036;2023-08-21T09:32:30;36.90;82.40
57552;DHT22;43379;48.160;14.036;2023-08-21T09:34:56;37.00;81.50
57552;DHT22;43379;48.160;14.036;2023-08-21T09:37:28;37.00;81.10
57552;DHT22;43379;48.160;14.036;2023-08-21T09:40:01;37.10;81.90
57552;DHT22;43379;48.160;14.036;2023-08-21T09:42:32;37.10;83.10
57552;DHT22;43379;48.160;14.036;2023-08-21T09:44:58;37.10;83.30
57552;DHT22;43379;48.160;14.036;2023-08-21T09:47:26;37.20;82.00
57552;DHT22;43379;48.160;14.036;2023-08-21T09:49:51;37.30;80.90
57552;DHT22;43379;48.160;14.036;2023-08-21T09:52:17;37.50;83.00
57552;DHT22;43379;48.160;14.036;2023-08-21T09:54:43;37.60;81.60
57552;DHT22;43379;48.160;14.036;2023-08-21T09:57:09;37.70;81.80
57552;DHT22;43379;48.160;14.036;2023-08-21T09:59:36;37.80;81.10
57552;DHT22;43379;48.160;14.036;2023-08-21T10:02:04;37.80;78.50
57552;DHT22;43379;48.160;14.036;2023-08-21T10:04:32;37.70;78.80
57552;DHT22;43379;48.160;14.036;2023-08-21T10:07:00;37.70;80.90
57552;DHT22;43379;48.160;14.036;2023-08-21T10:09:29;37.70;78.90
57552;DHT22;43379;48.160;14.036;2023-08-21T10:11:55;37.80;80.10
57552;DHT22;43379;48.160;14.036;2023-08-21T10:14:22;37.90;80.00
57552;DHT22;43379;48.160;14.036;2023-08-21T10:16:52;37.80;80.30
57552;DHT22;43379;48.160;14.036;2023-08-21T10:19:18;37.80;79.90
57552;DHT22;43379;48.160;14.036;2023-08-21T10:21:47;37.80;80.90
57552;DHT22;43379;48.160;14.036;2023-08-21T10:24:26;37.70;78.40
57552;DHT22;43379;48.160;14.036;2023-08-21T10:26:52;37.80;81.40
57552;DHT22;43379;48.160;14.036;2023-08-21T10:29:18;37.70;80.30
57552;DHT22;43379;48.160;14.036;2023-08-21T10:31:44;37.60;78.10
57552;DHT22;43379;48.160;14.036;2023-08-21T10:34:13;37.40;77.40
57552;DHT22;43379;48.160;14.036;2023-08-21T10:41:56;37.20;79.30
57552;DHT22;43379;48.160;14.036;2023-08-21T10:47:23;37.00;79.90
57552;DHT22;43379;48.160;14.036;2023-08-21T10:49:52;37.00;81.70
57552;DHT22;43379;48.160;14.036;2023-08-21T10:52:24;37.00;80.60
57552;DHT22;43379;48.160;14.036;2023-08-21T10:55:00;37.00;80.00
57552;DHT22;43379;48.160;14.036;2023-08-21T10:57:30;36.90;78.30
57552;DHT22;43379;48.160;14.036;2023-08-21T11:00:00;36.80;78.20
57552;DHT22;43379;48.160;14.036;2023-08-21T11:02:28;36.80;79.60
57552;DHT22;43379;48.160;14.036;2023-08-21T11:04:58;36.80;80.80
57552;DHT22;43379;48.160;14.036;2023-08-21T11:07:25;36.80;79.60
57552;DHT22;43379;48.160;14.036;2023-08-21T11:09:51;36.70;78.60
57552;DHT22;43379;48.160;14.036;2023-08-21T11:12:19;36.50;78.70
57552;DHT22;43379;48.160;14.036;2023-08-21T11:14:45;36.50;79.60
57552;DHT22;43379;48.160;14.036;2023-08-21T11:17:11;36.50;80.00
57552;DHT22;43379;48.160;14.036;2023-08-21T11:19:38;36.40;78.50
57552;DHT22;43379;48.160;14.036;2023-08-21T11:22:04;36.40;79.60
57552;DHT22;43379;48.160;14.036;2023-08-21T11:27:09;36.20;79.10
57552;DHT22;43379;48.160;14.036;2023-08-21T11:29:40;36.20;80.20
57552;DHT22;43379;48.160;14.036;2023-08-21T11:34:36;36.10;77.50
57552;DHT22;43379;48.160;14.036;2023-08-21T11:37:04;36.00;77.60
57552;DHT22;43379;48.160;14.036;2023-08-21T11:39:50;35.80;77.50
57552;DHT22;43379;48.160;14.036;2023-08-21T11:42:18;35.70;77.60
57552;DHT22;43379;48.160;14.036;2023-08-21T11:44:50;35.60;79.10
57552;DHT22;43379;48.160;14.036;2023-08-21T11:47:18;35.60;78.20
57552;DHT22;43379;48.160;14.036;2023-08-21T11:49:46;35.50;77.50
57552;DHT22;43379;48.160;14.036;2023-08-21T11:52:13;35.60;78.20
57552;DHT22;43379;48.160;14.036;2023-08-21T11:54:40;35.50;78.90
57552;DHT22;43379;48.160;14.036;2023-08-21T11:57:08;35.60;79.50
57552;DHT22;43379;48.160;14.036;2023-08-21T11:59:34;35.50;78.10
57552;DHT22;43379;48.160;14.036;2023-08-21T12:02:00;35.40;78.50
57552;DHT22;43379;48.160;14.036;2023-08-21T12:04:26;35.50;78.20
57552;DHT22;43379;48.160;14.036;2023-08-21T12:06:52;35.40;78.00
57552;DHT22;43379;48.160;14.036;2023-08-21T12:09:18;35.40;78.30
57552;DHT22;43379;48.160;14.036;2023-08-21T12:11:46;35.40;78.00
57552;DHT22;43379;48.160;14.036;2023-08-21T12:14:12;35.40;78.30
57552;DHT22;43379;48.160;14.036;2023-08-21T12:16:38;35.20;76.90
57552;DHT22;43379;48.160;14.036;2023-08-21T12:19:03;35.00;78.30
57552;DHT22;43379;48.160;14.036;2023-08-21T12:21:29;35.00;79.30
57552;DHT22;43379;48.160;14.036;2023-08-21T12:23:55;34.90;79.40
57552;DHT22;43379;48.160;14.036;2023-08-21T12:26:20;34.90;79.90
57552;DHT22;43379;48.160;14.036;2023-08-21T12:28:50;35.00;80.90
57552;DHT22;43379;48.160;14.036;2023-08-21T12:31:16;35.00;79.60
57552;DHT22;43379;48.160;14.036;2023-08-21T12:33:42;35.10;79.80
57552;DHT22;43379;48.160;14.036;2023-08-21T12:36:07;35.10;79.60
57552;DHT22;43379;48.160;14.036;2023-08-21T12:38:36;35.10;79.60
57552;DHT22;43379;48.160;14.036;2023-08-21T12:41:02;35.00;79.10
57552;DHT22;43379;48.160;14.036;2023-08-21T12:43:28;34.90;78.80
57552;DHT22;43379;48.160;14.036;2023-08-21T12:45:54;34.90;78.40
57552;DHT22;43379;48.160;14.036;2023-08-21T12:48:20;34.90;79.00
57552;DHT22;43379;48.160;14.036;2023-08-21T12:50:46;35.00;80.60
57552;DHT22;43379;48.160;14.036;2023-08-21T12:53:11;35.00;80.40
57552;DHT22;43379;48.160;14.036;2023-08-21T12:55:37;35.00;81.50
57552;DHT22;43379;48.160;14.036;2023-08-21T12:58:03;35.10;82.40
57552;DHT22;43379;48.160;14.036;2023-08-21T13:00:29;35.10;79.50
57552;DHT22;43379;48.160;14.036;2023-08-21T13:02:54;35.10;82.90
57552;DHT22;43379;48.160;14.036;2023-08-21T13:05:20;35.20;81.80
57552;DHT22;43379;48.160;14.036;2023-08-21T13:07:46;35.20;81.60
57552;DHT22;43379;48.160;14.036;2023-08-21T13:10:11;35.20;79.60
57552;DHT22;43379;48.160;14.036;2023-08-21T13:12:37;35.10;78.20
57552;DHT22;43379;48.160;14.036;2023-08-21T13:15:03;35.10;80.40
57552;DHT22;43379;48.160;14.036;2023-08-21T13:17:29;35.10;79.60
57552;DHT22;43379;48.160;14.036;2023-08-21T13:19:55;35.10;77.80
57552;DHT22;43379;48.160;14.036;2023-08-21T13:22:20;35.00;77.30
57552;DHT22;43379;48.160;14.036;2023-08-21T13:24:46;35.00;78.00
57552;DHT22;43379;48.160;14.036;2023-08-21T13:27:12;35.00;78.70
57552;DHT22;43379;48.160;14.036;2023-08-21T13:29:38;35.00;76.60
57552;DHT22;43379;48.160;14.036;2023-08-21T13:32:05;35.00;77.10
57552;DHT22;43379;48.160;14.036;2023-08-21T13:34:31;34.90;75.60
57552;DHT22;43379;48.160;14.036;2023-08-21T13:36:56;34.90;76.10
57552;DHT22;43379;48.160;14.036;2023-08-21T13:39:22;34.80;76.20
57552;DHT22;43379;48.160;14.036;2023-08-21T13:41:48;34.80;77.80
57552;DHT22;43379;48.160;14.036;2023-08-21T13:44:17;34.80;76.50
57552;DHT22;43379;48.160;14.036;2023-08-21T13:46:43;34.70;76.70
57552;DHT22;43379;48.160;14.036;2023-08-21T13:49:09;34.80;78.40
57552;DHT22;43379;48.160;14.036;2023-08-21T13:51:35;34.70;77.80
57552;DHT22;43379;48.160;14.036;2023-08-21T13:54:00;34.70;78.70
57552;DHT22;43379;48.160;14.036;2023-08-21T13:56:26;34.80;79.20
57552;DHT22;43379;48.160;14.036;2023-08-21T13:58:52;34.80;77.60
57552;DHT22;43379;48.160;14.036;2023-08-21T14:01:17;34.80;76.60
57552;DHT22;43379;48.160;14.036;2023-08-21T14:03:43;34.80;76.10
57552;DHT22;43379;48.160;14.036;2023-08-21T14:06:09;34.70;77.40
57552;DHT22;43379;48.160;14.036;2023-08-21T14:08:38;34.70;76.70
57552;DHT22;43379;48.160;14.036;2023-08-21T14:11:03;34.70;77.70
57552;DHT22;43379;48.160;14.036;2023-08-21T14:13:29;34.70;79.50
57552;DHT22;43379;48.160;14.036;2023-08-21T14:15:55;34.60;79.40
57552;DHT22;43379;48.160;14.036;2023-08-21T14:18:21;34.60;79.20
57552;DHT22;43379;48.160;14.036;2023-08-21T14:20:47;34.60;79.40
57552;DHT22;43379;48.160;14.036;2023-08-21T14:23:12;34.60;79.90
57552;DHT22;43379;48.160;14.036;2023-08-21T14:25:38;34.60;79.60
57552;DHT22;43379;48.160;14.036;2023-08-21T14:28:04;34.60;79.30
57552;DHT22;43379;48.160;14.036;2023-08-21T14:30:30;34.60;78.80
57552;DHT22;43379;48.160;14.036;2023-08-21T14:32:56;34.60;79.40
57552;DHT22;43379;48.160;14.036;2023-08-21T14:35:21;34.60;80.50
57552;DHT22;43379;48.160;14.036;2023-08-21T14:37:47;34.40;78.80
57552;DHT22;43379;48.160;14.036;2023-08-21T14:40:13;34.40;79.50
57552;DHT22;43379;48.160;14.036;2023-08-21T14:42:40;34.50;79.40
57552;DHT22;43379;48.160;14.036;2023-08-21T14:45:06;34.40;78.20
57552;DHT22;43379;48.160;14.036;2023-08-21T14:47:32;34.40;78.70
57552;DHT22;43379;48.160;14.036;2023-08-21T14:49:58;34.30;77.40
57552;DHT22;43379;48.160;14.036;2023-08-21T14:52:24;34.30;78.30
57552;DHT22;43379;48.160;14.036;2023-08-21T14:54:51;34.20;78.20
57552;DHT22;43379;48.160;14.036;2023-08-21T14:57:16;34.30;79.20
57552;DHT22;43379;48.160;14.036;2023-08-21T14:59:42;34.30;78.20
57552;DHT22;43379;48.160;14.036;2023-08-21T15:02:08;34.30;78.30
57552;DHT22;43379;48.160;14.036;2023-08-21T15:04:33;34.20;77.60
57552;DHT22;43379;48.160;14.036;2023-08-21T15:06:59;34.20;76.50
57552;DHT22;43379;48.160;14.036;2023-08-21T15:09:25;34.20;77.00
57552;DHT22;43379;48.160;14.036;2023-08-21T15:11:50;34.10;75.20
57552;DHT22;43379;48.160;14.036;2023-08-21T15:14:16;34.10;75.30
57552;DHT22;43379;48.160;14.036;2023-08-21T15:16:42;34.10;76.70
57552;DHT22;43379;48.160;14.036;2023-08-21T15:19:07;34.10;77.60
57552;DHT22;43379;48.160;14.036;2023-08-21T15:21:33;34.10;78.60
57552;DHT22;43379;48.160;14.036;2023-08-21T15:23:59;34.10;77.50
57552;DHT22;43379;48.160;14.036;2023-08-21T15:26:25;34.10;77.50
57552;DHT22;43379;48.160;14.036;2023-08-21T15:28:51;34.10;78.20
57552;DHT22;43379;48.160;14.036;2023-08-21T15:31:16;34.10;78.00